createdAt,value
2024-01-20T00:02:01.547Z,39.90
2024-01-20T00:04:29.620Z,48.20
2024-01-20T00:06:59.483Z,48.10
2024-01-20T00:09:38.574Z,45.40
2024-01-20T00:12:14.975Z,42.20
2024-01-20T00:14:43.311Z,45.10
2024-01-20T00:17:21.475Z,41.60
2024-01-20T00:19:55.889Z,46.60
2024-01-20T00:22:26.806Z,42.60
2024-01-20T00:24:55.277Z,44.20
2024-01-20T00:27:23.238Z,40.80
2024-01-20T00:29:51.068Z,46.40
2024-01-20T00:32:19.254Z,51.30
2024-01-20T00:34:59.520Z,49.40
2024-01-20T00:37:38.428Z,46.70
2024-01-20T00:40:09.500Z,45.00
2024-01-20T00:42:40.137Z,41.70
2024-01-20T00:45:11.049Z,41.30
2024-01-20T00:47:39.956Z,37.90
2024-01-20T00:50:08.624Z,45.20
2024-01-20T00:52:36.737Z,46.10
2024-01-20T00:55:06.000Z,41.20
2024-01-20T00:57:37.091Z,44.80
2024-01-20T01:00:12.167Z,50.70
2024-01-20T01:02:44.645Z,36.50
2024-01-20T01:05:12.740Z,44.20
2024-01-20T01:07:47.761Z,35.70
2024-01-20T01:10:16.305Z,37.20
2024-01-20T01:12:47.010Z,30.70
2024-01-20T01:15:14.816Z,36.10
2024-01-20T01:17:44.412Z,35.80
2024-01-20T01:20:12.781Z,38.30
2024-01-20T01:22:40.763Z,30.20
2024-01-20T01:25:10.666Z,35.70
2024-01-20T01:27:38.782Z,32.80
2024-01-20T01:30:07.356Z,33.10
2024-01-20T01:32:35.735Z,33.30
2024-01-20T01:35:06.583Z,37.60
2024-01-20T01:37:34.680Z,42.20
2024-01-20T01:40:02.798Z,29.30
2024-01-20T01:42:31.502Z,33.50
2024-01-20T01:44:59.630Z,27.50
2024-01-20T01:47:30.043Z,31.60
2024-01-20T01:50:04.597Z,28.30
2024-01-20T01:52:33.212Z,30.50
2024-01-20T01:55:01.986Z,38.90
2024-01-20T01:57:35.836Z,35.80
2024-01-20T02:00:08.124Z,29.70
2024-01-20T02:02:36.042Z,34.30
2024-01-20T02:05:04.110Z,30.00
2024-01-20T02:07:32.569Z,37.70
2024-01-20T02:10:00.483Z,34.10
2024-01-20T02:12:28.562Z,34.70
2024-01-20T02:14:56.824Z,37.60
2024-01-20T02:17:28.683Z,32.80
2024-01-20T02:19:56.633Z,36.20
2024-01-20T02:22:24.683Z,38.00
2024-01-20T02:24:52.673Z,31.90
2024-01-20T02:27:21.135Z,32.10
2024-01-20T02:29:49.486Z,34.70
2024-01-20T02:32:17.944Z,33.50
2024-01-20T02:34:46.067Z,42.80
2024-01-20T02:37:20.357Z,32.20
2024-01-20T02:39:49.428Z,29.60
2024-01-20T02:42:17.450Z,25.70
2024-01-20T02:44:45.508Z,27.20
2024-01-20T02:47:13.555Z,31.20
2024-01-20T02:49:42.189Z,32.50
2024-01-20T02:52:12.580Z,34.90
2024-01-20T02:54:40.633Z,33.40
2024-01-20T02:57:09.214Z,34.30
2024-01-20T02:59:40.862Z,26.70
2024-01-20T03:02:08.775Z,35.10
2024-01-20T03:04:36.679Z,30.40
2024-01-20T03:07:04.621Z,28.10
2024-01-20T03:09:32.871Z,29.20
2024-01-20T03:12:03.011Z,34.60
2024-01-20T03:14:31.149Z,37.80
2024-01-20T03:16:58.891Z,32.10
2024-01-20T03:19:26.799Z,37.80
2024-01-20T03:21:54.782Z,38.10
2024-01-20T03:24:22.810Z,34.50
2024-01-20T03:26:52.193Z,30.30
2024-01-20T03:29:23.882Z,32.30
2024-01-20T03:31:52.855Z,33.90
2024-01-20T03:34:21.979Z,31.20
2024-01-20T03:36:50.104Z,31.90
2024-01-20T03:39:24.327Z,27.20
2024-01-20T03:41:52.158Z,41.00
2024-01-20T03:44:22.109Z,38.60
2024-01-20T03:46:50.003Z,35.20
2024-01-20T03:49:17.984Z,36.20
2024-01-20T03:51:45.875Z,38.60
2024-01-20T03:54:15.430Z,32.80
2024-01-20T03:56:44.857Z,29.40
2024-01-20T03:59:12.868Z,35.90
2024-01-20T04:01:40.873Z,41.40
2024-01-20T04:04:09.155Z,30.90
2024-01-20T04:06:37.208Z,34.40
2024-01-20T04:11:43.046Z,29.30
2024-01-20T04:14:10.882Z,31.10
2024-01-20T04:16:38.868Z,31.50
2024-01-20T04:19:06.754Z,28.70
2024-01-20T04:21:34.652Z,34.90
2024-01-20T04:24:03.753Z,31.70
2024-01-20T04:26:31.712Z,30.20
2024-01-20T04:28:59.608Z,28.00
2024-01-20T04:31:27.470Z,29.20
2024-01-20T04:33:55.456Z,29.60
2024-01-20T04:36:23.416Z,29.40
2024-01-20T04:38:51.526Z,32.90
2024-01-20T04:41:19.266Z,37.00
2024-01-20T04:43:47.178Z,36.70
2024-01-20T04:46:19.322Z,36.90
2024-01-20T04:48:47.531Z,36.10
2024-01-20T04:51:15.512Z,28.80
2024-01-20T04:53:43.344Z,30.20
2024-01-20T04:56:21.455Z,31.80
2024-01-20T04:58:58.436Z,31.20
2024-01-20T05:01:26.254Z,31.70
2024-01-20T05:03:54.918Z,34.70
2024-01-20T05:06:22.946Z,36.80
2024-01-20T05:08:50.964Z,33.20
2024-01-20T05:11:19.732Z,35.10
2024-01-20T05:13:47.508Z,42.80
2024-01-20T05:16:17.356Z,36.00
2024-01-20T05:18:45.704Z,33.40
2024-01-20T05:21:15.352Z,29.60
2024-01-20T05:23:43.187Z,42.00
2024-01-20T05:26:11.163Z,39.10
2024-01-20T05:28:39.037Z,32.20
2024-01-20T05:31:07.037Z,34.10
2024-01-20T05:33:34.934Z,32.40
2024-01-20T05:36:02.916Z,31.90
2024-01-20T05:38:30.988Z,41.50
2024-01-20T05:40:58.867Z,41.80
2024-01-20T05:43:26.729Z,36.20
2024-01-20T05:46:05.189Z,36.60
2024-01-20T05:48:34.205Z,38.20
2024-01-20T05:51:02.942Z,33.90
2024-01-20T05:53:30.922Z,37.90
2024-01-20T05:55:58.582Z,30.20
2024-01-20T05:58:26.600Z,32.40
2024-01-20T06:00:55.894Z,28.00
2024-01-20T06:03:27.350Z,33.90
2024-01-20T06:05:59.299Z,34.40
2024-01-20T06:08:27.760Z,43.10
2024-01-20T06:10:55.845Z,31.60
2024-01-20T06:13:23.952Z,31.10
2024-01-20T06:15:54.179Z,31.20
2024-01-20T06:18:22.164Z,30.00
2024-01-20T06:20:50.055Z,30.50
2024-01-20T06:23:20.464Z,38.90
2024-01-20T06:25:52.159Z,36.80
2024-01-20T06:28:23.189Z,30.60
2024-01-20T06:30:51.218Z,36.50
2024-01-20T06:33:19.820Z,33.00
2024-01-20T06:35:47.731Z,40.30
2024-01-20T06:38:16.350Z,29.30
2024-01-20T06:40:44.242Z,33.30
2024-01-20T06:43:12.445Z,32.70
2024-01-20T06:45:40.929Z,31.80
2024-01-20T06:48:10.614Z,33.30
2024-01-20T06:50:44.336Z,39.00
2024-01-20T06:53:12.186Z,34.60
2024-01-20T06:55:40.100Z,36.10
2024-01-20T06:58:07.916Z,36.10
2024-01-20T07:00:35.972Z,30.40
2024-01-20T07:03:04.349Z,30.30
2024-01-20T07:05:32.676Z,40.30
2024-01-20T07:08:00.476Z,28.60
2024-01-20T07:10:28.621Z,34.10
2024-01-20T07:12:56.616Z,28.10
2024-01-20T07:15:25.181Z,37.40
2024-01-20T07:17:55.357Z,33.20
2024-01-20T07:20:23.672Z,36.00
2024-01-20T07:22:51.770Z,43.50
2024-01-20T07:25:19.741Z,40.90
2024-01-20T07:27:47.579Z,34.40
2024-01-20T07:30:15.782Z,30.50
2024-01-20T07:32:44.229Z,32.30
2024-01-20T07:35:19.455Z,34.70
2024-01-20T07:37:52.348Z,32.50
2024-01-20T07:40:20.305Z,33.50
2024-01-20T07:42:48.230Z,55.10
2024-01-20T07:45:16.141Z,61.70
2024-01-20T07:47:46.699Z,40.80
2024-01-20T07:50:14.784Z,50.20
2024-01-20T07:52:45.422Z,36.10
2024-01-20T07:55:14.219Z,34.50
2024-01-20T07:57:42.114Z,29.00
2024-01-20T08:00:16.919Z,35.10
2024-01-20T08:02:51.880Z,34.60
2024-01-20T08:05:27.947Z,36.20
2024-01-20T08:07:59.625Z,33.60
2024-01-20T08:10:27.579Z,34.60
2024-01-20T08:12:56.355Z,37.60
2024-01-20T08:15:24.743Z,40.90
2024-01-20T08:17:52.845Z,39.90
2024-01-20T08:20:20.814Z,38.50
2024-01-20T08:22:48.680Z,39.60
2024-01-20T08:25:18.146Z,33.80
2024-01-20T08:27:46.126Z,35.80
2024-01-20T08:30:14.429Z,39.30
2024-01-20T08:32:45.660Z,42.10
2024-01-20T08:35:20.109Z,29.60
2024-01-20T08:37:48.084Z,30.50
2024-01-20T08:40:16.056Z,34.00
2024-01-20T08:42:44.421Z,37.10
2024-01-20T08:45:16.423Z,42.60
2024-01-20T08:47:45.082Z,44.80
2024-01-20T08:50:20.786Z,39.50
2024-01-20T08:52:50.339Z,38.00
2024-01-20T08:55:18.389Z,39.70
2024-01-20T08:57:46.296Z,48.20
2024-01-20T09:00:14.813Z,42.30
2024-01-20T09:02:42.881Z,44.00
2024-01-20T09:05:12.005Z,48.80
2024-01-20T09:07:39.841Z,54.00
2024-01-20T09:10:09.062Z,45.60
2024-01-20T09:12:36.978Z,44.50
2024-01-20T09:15:05.234Z,39.60
2024-01-20T09:17:33.338Z,39.40
2024-01-20T09:20:01.410Z,38.10
2024-01-20T09:22:29.481Z,30.60
2024-01-20T09:24:57.521Z,39.30
2024-01-20T09:27:26.885Z,31.20
2024-01-20T09:29:54.711Z,31.00
2024-01-20T09:32:22.615Z,39.90
2024-01-20T09:34:57.543Z,51.10
2024-01-20T09:37:33.213Z,35.80
2024-01-20T09:40:13.242Z,34.30
2024-01-20T09:42:48.790Z,39.70
2024-01-20T09:45:16.672Z,30.10
2024-01-20T09:47:44.730Z,34.70
2024-01-20T09:50:12.694Z,41.10
2024-01-20T09:52:48.332Z,36.20
2024-01-20T09:55:24.131Z,37.20
2024-01-20T09:57:55.189Z,31.00
2024-01-20T10:00:24.532Z,43.10
2024-01-20T10:02:52.501Z,32.00
2024-01-20T10:05:24.339Z,34.40
2024-01-20T10:07:57.278Z,35.30
2024-01-20T10:10:26.111Z,29.80
2024-01-20T10:12:54.763Z,33.40
2024-01-20T10:15:23.710Z,33.10
2024-01-20T10:17:52.122Z,32.40
2024-01-20T10:20:24.697Z,28.10
2024-01-20T10:22:53.657Z,44.10
2024-01-20T10:25:21.763Z,35.30
2024-01-20T10:27:51.051Z,30.70
2024-01-20T10:30:21.388Z,34.10
2024-01-20T10:35:21.581Z,35.70
2024-01-20T10:37:52.452Z,37.30
2024-01-20T10:40:21.417Z,37.30
2024-01-20T10:42:59.647Z,34.60
2024-01-20T10:45:30.273Z,41.90
2024-01-20T10:48:18.906Z,40.70
2024-01-20T10:50:49.609Z,36.80
2024-01-20T10:53:17.522Z,39.20
2024-01-20T10:55:48.948Z,37.30
2024-01-20T10:58:18.708Z,33.60
2024-01-20T11:00:47.141Z,43.20
2024-01-20T11:03:22.260Z,39.80
2024-01-20T11:05:50.653Z,38.50
2024-01-20T11:08:25.982Z,33.50
2024-01-20T11:10:55.061Z,33.80
2024-01-20T11:13:28.905Z,34.30
2024-01-20T11:15:59.205Z,39.80
2024-01-20T11:18:28.525Z,42.80
2024-01-20T11:21:01.824Z,32.90
2024-01-20T11:23:30.019Z,42.20
2024-01-20T11:25:58.360Z,44.00
2024-01-20T11:28:33.142Z,38.20
2024-01-20T11:31:01.750Z,38.00
2024-01-20T11:33:31.332Z,38.70
2024-01-20T11:36:00.814Z,31.70
2024-01-20T11:38:28.897Z,36.20
2024-01-20T11:41:04.345Z,36.80
2024-01-20T11:43:32.335Z,43.80
2024-01-20T11:46:00.287Z,41.70
2024-01-20T11:48:28.494Z,37.70
2024-01-20T11:50:56.671Z,30.40
2024-01-20T11:53:24.661Z,31.00
2024-01-20T11:55:53.426Z,32.90
2024-01-20T11:58:21.388Z,31.10
2024-01-20T12:00:51.188Z,39.20
2024-01-20T12:03:19.968Z,36.10
2024-01-20T12:05:48.021Z,33.40
2024-01-20T12:08:16.154Z,49.50
2024-01-20T12:10:44.310Z,42.90
2024-01-20T12:13:14.167Z,40.90
2024-01-20T12:15:43.382Z,42.10
2024-01-20T12:18:13.204Z,34.00
2024-01-20T12:20:41.594Z,37.30
2024-01-20T12:23:09.678Z,32.60
2024-01-20T12:25:37.500Z,34.70
2024-01-20T12:28:06.004Z,34.70
2024-01-20T12:30:33.903Z,37.10
2024-01-20T12:33:01.805Z,34.70
2024-01-20T12:35:29.912Z,33.10
2024-01-20T12:37:58.752Z,45.40
2024-01-20T12:40:27.729Z,38.30
2024-01-20T12:42:56.043Z,40.70
2024-01-20T12:45:33.457Z,32.50
2024-01-20T12:48:01.485Z,38.00
2024-01-20T12:50:29.658Z,26.20
2024-01-20T12:52:58.256Z,34.90
2024-01-20T12:55:26.423Z,28.00
2024-01-20T12:57:54.306Z,35.00
2024-01-20T13:00:22.678Z,31.90
2024-01-20T13:02:52.730Z,32.60
2024-01-20T13:05:21.180Z,33.70
2024-01-20T13:07:49.067Z,34.70
2024-01-20T13:10:17.073Z,30.50
2024-01-20T13:12:44.948Z,39.50
2024-01-20T13:15:13.008Z,43.20
2024-01-20T13:17:42.678Z,30.80
2024-01-20T13:20:13.138Z,34.40
2024-01-20T13:22:41.577Z,34.00
2024-01-20T13:25:10.030Z,36.80
2024-01-20T13:27:38.621Z,38.10
2024-01-20T13:30:07.644Z,34.40
2024-01-20T13:32:35.633Z,34.00
2024-01-20T13:35:04.482Z,31.70
2024-01-20T13:37:32.777Z,33.40
2024-01-20T13:40:00.754Z,28.10
2024-01-20T13:42:28.746Z,30.30
2024-01-20T13:44:56.670Z,28.10
2024-01-20T13:47:24.642Z,33.00
2024-01-20T13:49:52.600Z,34.50
2024-01-20T13:52:20.677Z,25.50
2024-01-20T13:54:49.247Z,34.30
2024-01-20T13:57:17.274Z,30.80
2024-01-20T13:59:45.702Z,30.20
2024-01-20T14:02:13.470Z,32.80
2024-01-20T14:04:41.614Z,28.00
2024-01-20T14:07:10.550Z,43.50
2024-01-20T14:09:38.725Z,31.10
2024-01-20T14:12:07.096Z,38.00
2024-01-20T14:14:35.647Z,37.10
2024-01-20T14:17:04.156Z,35.10
2024-01-20T14:19:32.158Z,28.30
2024-01-20T14:22:04.118Z,32.60
2024-01-20T14:24:32.062Z,27.80
2024-01-20T14:27:00.032Z,34.50
2024-01-20T14:29:28.243Z,38.60
2024-01-20T14:31:56.108Z,23.90
2024-01-20T14:34:26.646Z,28.90
2024-01-20T14:37:04.470Z,27.40
2024-01-20T14:39:33.473Z,27.50
2024-01-20T14:42:01.526Z,27.30
2024-01-20T14:44:29.618Z,26.00
2024-01-20T14:46:57.687Z,25.40
2024-01-20T14:49:25.887Z,23.50
2024-01-20T14:51:53.731Z,25.40
2024-01-20T14:54:22.682Z,27.70
2024-01-20T14:56:50.871Z,23.10
2024-01-20T14:59:19.097Z,25.80
2024-01-20T15:01:48.412Z,27.00
2024-01-20T15:04:16.904Z,28.70
2024-01-20T15:06:45.517Z,27.50
2024-01-20T15:09:13.749Z,22.90
2024-01-20T15:11:41.873Z,24.20
2024-01-20T15:14:10.134Z,24.30
2024-01-20T15:16:38.131Z,26.80
2024-01-20T15:19:07.260Z,26.10
2024-01-20T15:21:36.318Z,22.10
2024-01-20T15:24:04.569Z,22.60
2024-01-20T15:26:32.820Z,26.00
2024-01-20T15:29:04.608Z,23.20
2024-01-20T15:31:33.113Z,21.90
2024-01-20T15:34:01.595Z,28.50
2024-01-20T15:36:29.664Z,44.40
2024-01-20T15:38:57.587Z,33.10
2024-01-20T15:41:25.726Z,36.50
2024-01-20T15:43:53.833Z,34.80
2024-01-20T15:46:21.822Z,30.70
2024-01-20T15:48:49.973Z,28.90
2024-01-20T15:51:18.110Z,29.80
2024-01-20T15:53:46.963Z,21.70
2024-01-20T15:56:15.390Z,27.60
2024-01-20T15:58:43.454Z,19.40
2024-01-20T16:01:12.948Z,25.70
2024-01-20T16:03:41.038Z,22.60
2024-01-20T16:06:09.973Z,28.20
2024-01-20T16:08:38.266Z,24.20
2024-01-20T16:11:06.510Z,29.70
2024-01-20T16:13:35.220Z,25.00
2024-01-20T16:16:04.279Z,22.70
2024-01-20T16:18:38.814Z,21.60
2024-01-20T16:21:07.034Z,20.50
2024-01-20T16:23:35.119Z,21.40
2024-01-20T16:26:03.022Z,21.10
2024-01-20T16:28:33.361Z,22.10
2024-01-20T16:31:02.416Z,20.90
2024-01-20T16:33:30.613Z,19.70
2024-01-20T16:35:58.644Z,17.00
2024-01-20T16:38:30.560Z,18.90
2024-01-20T16:40:58.441Z,18.10
2024-01-20T16:43:26.411Z,20.30
2024-01-20T16:45:54.390Z,18.80
2024-01-20T16:48:22.454Z,22.80
2024-01-20T16:50:50.648Z,22.10
2024-01-20T16:53:19.552Z,20.00
2024-01-20T16:55:47.758Z,20.40
2024-01-20T16:58:16.684Z,18.70
2024-01-20T17:00:44.848Z,26.10
2024-01-20T17:03:13.631Z,18.50
2024-01-20T17:05:41.826Z,19.80
2024-01-20T17:08:09.598Z,19.10
2024-01-20T17:10:37.905Z,20.60
2024-01-20T17:13:06.091Z,27.40
2024-01-20T17:15:34.485Z,22.20
2024-01-20T17:20:37.568Z,20.90
2024-01-20T17:23:05.729Z,17.10
2024-01-20T17:25:34.677Z,21.00
2024-01-20T17:28:03.668Z,20.80
2024-01-20T17:30:31.576Z,15.40
2024-01-20T17:32:59.630Z,16.60
2024-01-20T17:35:27.554Z,19.10
2024-01-20T17:37:57.070Z,19.00
2024-01-20T17:40:25.133Z,19.80
2024-01-20T17:42:53.304Z,18.80
2024-01-20T17:45:21.510Z,16.20
2024-01-20T17:47:53.693Z,15.10
2024-01-20T17:50:23.597Z,17.90
2024-01-20T17:52:51.760Z,22.70
2024-01-20T17:55:19.748Z,18.90
2024-01-20T17:57:50.294Z,13.40
2024-01-20T18:00:18.421Z,16.20
2024-01-20T18:02:47.546Z,20.80
2024-01-20T18:05:15.579Z,18.60
2024-01-20T18:07:46.795Z,27.20
2024-01-20T18:10:17.061Z,19.60
2024-01-20T18:12:45.179Z,13.70
2024-01-20T18:15:14.236Z,13.40
2024-01-20T18:17:48.563Z,13.10
2024-01-20T18:20:16.672Z,12.20
2024-01-20T18:22:46.519Z,15.10
2024-01-20T18:25:14.581Z,19.90
2024-01-20T18:27:42.879Z,20.80
2024-01-20T18:30:11.009Z,19.50
2024-01-20T18:32:39.216Z,20.00
2024-01-20T18:35:07.526Z,16.90
2024-01-20T18:37:35.614Z,15.60
2024-01-20T18:40:04.111Z,15.00
2024-01-20T18:42:32.501Z,13.10
2024-01-20T18:45:00.535Z,15.70
2024-01-20T18:47:28.702Z,15.50
2024-01-20T18:50:03.557Z,19.20
2024-01-20T18:52:42.105Z,18.70
2024-01-20T18:55:16.240Z,18.90
2024-01-20T18:57:48.234Z,14.50
2024-01-20T19:00:16.446Z,18.60
2024-01-20T19:02:44.932Z,18.90
2024-01-20T19:05:13.641Z,15.20
2024-01-20T19:07:41.668Z,18.70
2024-01-20T19:10:11.163Z,7.90
2024-01-20T19:12:41.352Z,8.20
2024-01-20T19:15:10.134Z,4.30
2024-01-20T19:17:38.877Z,8.00
2024-01-20T19:20:13.401Z,12.50
2024-01-20T19:22:41.415Z,9.50
2024-01-20T19:25:11.619Z,9.40
2024-01-20T19:27:39.666Z,9.50
2024-01-20T19:30:08.040Z,8.90
2024-01-20T19:32:36.883Z,9.90
2024-01-20T19:35:05.579Z,8.10
2024-01-20T19:37:33.931Z,11.70
2024-01-20T19:40:01.844Z,12.70
2024-01-20T19:42:29.792Z,9.70
2024-01-20T19:44:57.901Z,6.80
2024-01-20T19:47:25.950Z,9.10
2024-01-20T19:49:55.038Z,9.80
2024-01-20T19:52:23.819Z,10.00
2024-01-20T19:54:51.879Z,9.40
2024-01-20T19:57:20.328Z,16.10
2024-01-20T19:59:52.469Z,11.90
2024-01-20T20:02:20.425Z,17.90
2024-01-20T20:04:48.528Z,12.70
2024-01-20T20:07:18.834Z,21.00
2024-01-20T20:09:47.854Z,24.90
2024-01-20T20:12:15.741Z,13.60
2024-01-20T20:14:43.782Z,12.50
2024-01-20T20:17:11.689Z,8.20
2024-01-20T20:19:46.518Z,9.80
2024-01-20T20:22:18.525Z,12.80
2024-01-20T20:24:46.955Z,12.30
2024-01-20T20:27:14.852Z,24.50
2024-01-20T20:29:42.969Z,19.60
2024-01-20T20:32:11.107Z,15.40
2024-01-20T20:34:39.490Z,10.80
2024-01-20T20:37:07.520Z,13.20
2024-01-20T20:39:43.047Z,11.40
2024-01-20T20:42:11.383Z,10.80
2024-01-20T20:44:39.469Z,7.20
2024-01-20T20:47:07.802Z,10.40
2024-01-20T20:49:37.651Z,11.90
2024-01-20T20:52:06.192Z,10.00
2024-01-20T20:54:34.489Z,12.00
2024-01-20T20:57:03.270Z,7.50
2024-01-20T20:59:31.176Z,18.20
2024-01-20T21:01:59.172Z,15.60
2024-01-20T21:04:27.378Z,13.90
2024-01-20T21:06:59.195Z,12.60
2024-01-20T21:09:27.614Z,17.10
2024-01-20T21:11:55.471Z,15.00
2024-01-20T21:14:23.348Z,9.90
2024-01-20T21:16:51.318Z,12.90
2024-01-20T21:19:21.807Z,17.20
2024-01-20T21:21:50.144Z,10.90
2024-01-20T21:24:18.464Z,13.50
2024-01-20T21:26:47.119Z,13.20
2024-01-20T21:29:15.022Z,8.30
2024-01-20T21:31:43.491Z,19.90
2024-01-20T21:34:11.932Z,11.50
2024-01-20T21:36:40.343Z,12.40
2024-01-20T21:39:11.060Z,16.30
2024-01-20T21:41:39.301Z,14.60
2024-01-20T21:44:07.865Z,16.10
2024-01-20T21:46:37.000Z,12.10
2024-01-20T21:49:05.837Z,12.50
2024-01-20T21:51:34.021Z,13.20
2024-01-20T21:54:02.014Z,12.80
2024-01-20T21:56:30.090Z,19.70
2024-01-20T21:58:58.292Z,17.00
2024-01-20T22:01:28.419Z,12.90
2024-01-20T22:03:56.367Z,17.80
2024-01-20T22:06:24.347Z,12.70
2024-01-20T22:08:52.658Z,12.10
2024-01-20T22:11:20.644Z,18.90
2024-01-20T22:13:52.667Z,14.40
2024-01-20T22:16:21.163Z,9.60
2024-01-20T22:18:55.439Z,12.70
2024-01-20T22:21:27.513Z,12.40
2024-01-20T22:23:56.573Z,13.60
2024-01-20T22:26:24.450Z,23.70
2024-01-20T22:28:55.739Z,20.80
2024-01-20T22:31:25.167Z,17.80
2024-01-20T22:33:53.186Z,14.90
2024-01-20T22:36:22.194Z,19.50
2024-01-20T22:38:50.336Z,14.20
2024-01-20T22:41:19.439Z,21.90
2024-01-20T22:43:47.336Z,24.10
2024-01-20T22:46:16.698Z,22.70
2024-01-20T22:48:45.476Z,20.40
2024-01-20T22:51:20.715Z,25.30
2024-01-20T22:53:48.646Z,34.70
2024-01-20T22:56:17.814Z,29.80
2024-01-20T22:58:46.969Z,25.50
2024-01-20T23:01:17.397Z,30.00
2024-01-20T23:03:47.987Z,25.30
2024-01-20T23:06:16.413Z,25.20
2024-01-20T23:08:44.462Z,28.30
2024-01-20T23:11:12.871Z,25.00
2024-01-20T23:13:40.731Z,23.90
2024-01-20T23:16:12.394Z,23.40
2024-01-20T23:18:40.565Z,28.60
2024-01-20T23:21:09.470Z,26.30
2024-01-20T23:23:47.536Z,34.30
2024-01-20T23:26:16.030Z,34.90
2024-01-20T23:28:44.670Z,33.90
2024-01-20T23:31:13.881Z,39.40
2024-01-20T23:33:41.697Z,40.00
2024-01-20T23:36:09.663Z,47.70
2024-01-20T23:38:37.589Z,50.30
2024-01-20T23:41:05.542Z,41.90
2024-01-20T23:43:33.414Z,34.30
2024-01-20T23:46:03.268Z,30.10
2024-01-20T23:48:31.163Z,25.60
2024-01-20T23:50:59.144Z,26.80
2024-01-20T23:53:27.384Z,23.20
2024-01-20T23:55:55.240Z,23.90
2024-01-20T23:58:24.150Z,33.50
